Time;durP1;ratioP1;P1;durP2;ratioP2;P2;SDS_P1;SDS_P2;PMS_P1;PMS_P2;Temp;Humidity;BMP_temperature;BMP_pressure;BME280_temperature;BME280_humidity;BME280_pressure;Samples;Min_cycle;Max_cycle;Signal;HPM_P1;HPM_P2
2021/09/08 00:00:27;;;;;;;19.52;11.57;;;11.10;67.00;;;;;;5053303;28;20024;-69
2021/09/08 00:02:53;;;;;;;21.33;10.77;;;11.10;67.10;;;;;;5053110;28;20047;-70
2021/09/08 00:05:19;;;;;;;17.20;10.65;;;11.10;67.20;;;;;;5053177;28;20114;-69
2021/09/08 00:07:44;;;;;;;22.83;11.35;;;11.10;67.20;;;;;;5041779;28;20033;-72
2021/09/08 00:10:11;;;;;;;18.60;10.65;;;11.10;67.20;;;;;;5052985;28;20055;-73
2021/09/08 00:12:38;;;;;;;19.13;10.90;;;11.10;67.20;;;;;;5054616;28;20383;-73
2021/09/08 00:15:05;;;;;;;16.67;10.55;;;11.10;67.20;;;;;;5053322;28;20028;-72
2021/09/08 00:17:31;;;;;;;16.60;10.75;;;11.10;67.10;;;;;;5053512;28;20090;-72
2021/09/08 00:19:57;;;;;;;22.90;10.48;;;11.10;67.10;;;;;;5053851;28;20104;-72
2021/09/08 00:22:22;;;;;;;16.98;10.07;;;11.10;67.20;;;;;;5052896;28;20029;-72
2021/09/08 00:24:49;;;;;;;18.25;11.27;;;11.10;67.10;;;;;;5054103;28;20032;-73
2021/09/08 00:27:15;;;;;;;20.00;11.00;;;11.10;67.10;;;;;;5052803;28;20158;-71
2021/09/08 00:29:41;;;;;;;18.92;10.63;;;11.10;67.10;;;;;;5053573;28;20478;-70
2021/09/08 00:32:07;;;;;;;17.38;10.60;;;11.00;67.00;;;;;;5053253;28;20069;-73
2021/09/08 00:34:32;;;;;;;16.88;10.10;;;11.00;67.00;;;;;;5054187;28;20032;-72
2021/09/08 00:36:58;;;;;;;16.52;10.35;;;11.00;67.00;;;;;;5053685;28;20109;-71
2021/09/08 00:39:24;;;;;;;17.05;10.52;;;11.00;67.00;;;;;;5052552;28;20021;-67
2021/09/08 00:41:49;;;;;;;18.48;10.27;;;11.00;67.00;;;;;;5052298;28;20021;-70
2021/09/08 00:44:15;;;;;;;17.30;9.20;;;11.00;67.00;;;;;;5052836;28;20025;-68
2021/09/08 00:46:42;;;;;;;17.05;9.50;;;10.90;66.90;;;;;;5048653;28;20487;-68
2021/09/08 00:49:09;;;;;;;17.17;9.20;;;11.00;66.90;;;;;;5053629;28;20109;-71
2021/09/08 00:51:36;;;;;;;15.40;9.23;;;10.90;66.90;;;;;;5034591;28;20079;-68
2021/09/08 00:54:11;;;;;;;15.60;9.40;;;10.90;66.90;;;;;;5051992;28;20443;-67
2021/09/08 00:56:37;;;;;;;14.80;9.20;;;10.90;66.80;;;;;;5053667;28;20025;-67
2021/09/08 00:59:04;;;;;;;16.38;8.88;;;10.90;66.90;;;;;;5053515;28;20051;-67
2021/09/08 01:01:29;;;;;;;15.23;9.60;;;10.80;67.00;;;;;;5049696;28;20111;-68
2021/09/08 01:03:55;;;;;;;15.43;9.02;;;10.80;67.10;;;;;;5051219;28;20120;-69
2021/09/08 01:06:21;;;;;;;14.98;9.52;;;10.80;67.30;;;;;;5036018;28;20033;-67
2021/09/08 01:08:47;;;;;;;16.05;9.13;;;10.70;67.40;;;;;;5037127;28;20079;-67
2021/09/08 01:11:13;;;;;;;14.68;9.43;;;10.60;67.50;;;;;;5047852;28;20467;-70
2021/09/08 01:13:38;;;;;;;15.27;9.32;;;10.60;67.60;;;;;;5052978;28;20438;-68
2021/09/08 01:16:05;;;;;;;17.42;10.38;;;10.50;67.80;;;;;;5048259;28;20025;-68
2021/09/08 01:18:32;;;;;;;18.70;9.43;;;10.40;67.90;;;;;;5040213;28;20383;-69
2021/09/08 01:20:58;;;;;;;18.83;10.15;;;10.40;68.00;;;;;;5035773;28;20036;-69
2021/09/08 01:23:24;;;;;;;14.73;9.38;;;10.40;68.10;;;;;;5049238;28;20024;-70
2021/09/08 01:25:50;;;;;;;17.90;9.27;;;10.30;68.10;;;;;;5043010;28;20068;-67
2021/09/08 01:28:16;;;;;;;17.75;10.52;;;10.40;68.20;;;;;;5047886;28;20060;-70
2021/09/08 01:30:42;;;;;;;17.02;9.65;;;10.30;68.30;;;;;;5052190;28;20032;-69
2021/09/08 01:33:17;;;;;;;18.90;9.60;;;10.30;68.20;;;;;;5038287;28;20124;-65
2021/09/08 01:35:42;;;;;;;16.08;9.55;;;10.30;68.60;;;;;;5035139;28;20037;-70
2021/09/08 01:38:08;;;;;;;17.25;9.68;;;10.30;68.40;;;;;;5045131;28;20045;-67
2021/09/08 01:40:34;;;;;;;17.38;9.40;;;10.20;68.60;;;;;;5051274;28;20029;-66
2021/09/08 01:43:00;;;;;;;17.50;10.00;;;10.20;68.60;;;;;;5039012;28;20037;-67
2021/09/08 01:45:26;;;;;;;16.55;10.05;;;10.20;68.80;;;;;;5043185;28;20395;-69
2021/09/08 01:47:54;;;;;;;17.45;9.80;;;10.10;69.00;;;;;;5040541;28;20036;-66
2021/09/08 01:50:20;;;;;;;21.23;10.55;;;10.10;69.20;;;;;;5037479;28;20029;-67
2021/09/08 01:52:46;;;;;;;22.55;11.18;;;10.00;69.30;;;;;;5044424;28;20029;-69
2021/09/08 01:55:12;;;;;;;25.17;12.05;;;10.00;69.30;;;;;;5050021;28;20031;-66
2021/09/08 01:57:38;;;;;;;19.27;11.38;;;10.00;69.30;;;;;;5040943;28;20033;-67
2021/09/08 02:00:05;;;;;;;22.80;11.65;;;10.00;69.30;;;;;;5052980;28;20104;-69
2021/09/08 02:02:31;;;;;;;23.83;11.60;;;10.00;69.50;;;;;;5052200;28;20529;-70
2021/09/08 02:04:57;;;;;;;20.60;10.80;;;10.00;69.60;;;;;;5051416;28;20056;-69
2021/09/08 02:07:23;;;;;;;21.80;11.57;;;10.00;69.50;;;;;;5047099;28;20387;-68
2021/09/08 02:09:48;;;;;;;20.83;11.25;;;10.00;69.50;;;;;;5037642;28;20074;-68
2021/09/08 02:12:14;;;;;;;22.13;11.35;;;10.00;69.50;;;;;;5051971;28;20112;-66
2021/09/08 02:14:40;;;;;;;20.40;10.95;;;10.00;69.50;;;;;;5049543;28;20025;-69
2021/09/08 02:17:05;;;;;;;19.58;10.73;;;9.90;69.60;;;;;;5052230;28;20112;-67
2021/09/08 02:19:31;;;;;;;21.25;11.35;;;9.90;69.80;;;;;;5037718;28;20021;-69
2021/09/08 02:21:57;;;;;;;26.63;13.20;;;10.00;70.10;;;;;;5034385;28;20037;-66
2021/09/08 02:24:23;;;;;;;30.98;15.32;;;9.90;69.90;;;;;;5032634;28;20590;-69
2021/09/08 02:26:48;;;;;;;33.22;16.73;;;10.00;69.90;;;;;;5042686;28;20036;-65
2021/09/08 02:29:14;;;;;;;36.35;16.60;;;10.00;69.80;;;;;;5031915;28;20028;-69
2021/09/08 02:31:40;;;;;;;37.90;17.40;;;10.00;69.50;;;;;;5032119;28;20033;-69
2021/09/08 02:34:05;;;;;;;32.55;16.02;;;10.00;69.40;;;;;;5032366;28;20026;-72
2021/09/08 02:36:31;;;;;;;28.25;14.18;;;10.00;69.20;;;;;;5040012;28;20029;-67
2021/09/08 02:38:57;;;;;;;27.88;13.57;;;10.00;69.20;;;;;;5038332;28;20056;-69
2021/09/08 02:41:24;;;;;;;25.98;14.50;;;10.00;69.20;;;;;;5052401;28;20029;-70
2021/09/08 02:43:52;;;;;;;26.23;14.77;;;10.00;69.10;;;;;;5054664;28;20395;-67
2021/09/08 02:46:19;;;;;;;26.20;13.95;;;10.00;69.10;;;;;;5054601;28;20037;-70
2021/09/08 02:48:44;;;;;;;23.88;14.05;;;10.00;69.10;;;;;;5047116;28;20064;-68
2021/09/08 02:51:10;;;;;;;23.30;13.45;;;10.00;69.00;;;;;;5055378;28;20056;-70
2021/09/08 02:53:36;;;;;;;21.52;13.40;;;10.00;68.90;;;;;;5044488;28;20368;-70
2021/09/08 02:56:03;;;;;;;23.58;13.60;;;10.00;69.10;;;;;;5038990;28;20083;-67
2021/09/08 02:58:30;;;;;;;23.10;12.90;;;10.00;69.20;;;;;;5048723;28;20046;-68
2021/09/08 03:00:56;;;;;;;25.20;13.10;;;9.90;69.30;;;;;;5052828;28;20029;-69
2021/09/08 03:03:21;;;;;;;20.20;12.18;;;9.90;69.20;;;;;;5043715;28;20474;-69
2021/09/08 03:05:48;;;;;;;20.30;13.40;;;9.90;69.20;;;;;;5055103;28;20060;-69
2021/09/08 03:08:14;;;;;;;25.83;13.48;;;9.90;69.30;;;;;;5038140;28;20395;-71
2021/09/08 03:10:43;;;;;;;25.05;14.93;;;9.90;69.50;;;;;;5035598;28;20104;-70
2021/09/08 03:13:09;;;;;;;25.50;13.15;;;9.90;69.50;;;;;;5053665;28;20028;-68
2021/09/08 03:15:35;;;;;;;28.52;13.32;;;9.90;69.50;;;;;;5050928;28;20379;-70
2021/09/08 03:18:00;;;;;;;24.42;12.70;;;9.80;69.50;;;;;;5054781;28;20163;-67
2021/09/08 03:20:26;;;;;;;26.05;12.73;;;9.80;69.50;;;;;;5049886;28;20100;-70
2021/09/08 03:22:51;;;;;;;24.33;13.07;;;9.80;69.50;;;;;;5039987;28;20032;-68
2021/09/08 03:25:17;;;;;;;25.85;14.82;;;9.80;69.60;;;;;;5053034;28;20056;-69
2021/09/08 03:27:43;;;;;;;27.23;13.35;;;9.80;69.70;;;;;;5041975;28;20395;-68
2021/09/08 03:30:09;;;;;;;27.13;13.27;;;9.90;69.80;;;;;;5053841;28;20072;-67
2021/09/08 03:32:35;;;;;;;24.85;14.05;;;9.90;69.80;;;;;;5053786;28;20074;-68
2021/09/08 03:35:00;;;;;;;26.38;14.80;;;10.10;70.00;;;;;;5043108;28;20025;-69
2021/09/08 03:37:27;;;;;;;28.73;14.75;;;10.30;69.90;;;;;;5035137;28;20043;-69
2021/09/08 03:39:52;;;;;;;32.33;16.58;;;10.60;69.50;;;;;;5035052;28;20321;-67
2021/09/08 03:42:19;;;;;;;33.45;16.67;;;10.90;69.00;;;;;;5053946;28;20086;-71
2021/09/08 03:44:45;;;;;;;31.83;15.25;;;11.20;68.30;;;;;;5049520;28;20025;-70
2021/09/08 03:47:11;;;;;;;33.58;15.80;;;11.40;67.60;;;;;;5054547;28;20036;-70
2021/09/08 03:49:37;;;;;;;34.55;15.20;;;11.70;67.10;;;;;;5053701;28;20149;-71
2021/09/08 03:52:03;;;;;;;26.30;13.40;;;12.00;66.40;;;;;;5046725;28;20168;-71
2021/09/08 03:54:29;;;;;;;28.77;13.32;;;12.30;65.70;;;;;;5046709;28;20112;-70
2021/09/08 03:56:54;;;;;;;24.92;11.95;;;12.70;64.90;;;;;;5044958;28;20136;-70
2021/09/08 03:59:23;;;;;;;21.85;10.55;;;13.10;64.10;;;;;;5052627;28;20025;-69
2021/09/08 04:01:49;;;;;;;18.50;9.90;;;13.40;63.10;;;;;;5051859;28;20356;-72
2021/09/08 04:04:15;;;;;;;20.52;10.32;;;13.80;62.20;;;;;;5051328;28;20053;-68
2021/09/08 04:06:41;;;;;;;15.23;8.82;;;14.20;61.10;;;;;;5043291;28;20498;-71
2021/09/08 04:09:06;;;;;;;13.13;7.95;;;14.60;60.10;;;;;;5051101;28;20112;-70
2021/09/08 04:11:32;;;;;;;14.93;7.75;;;15.00;59.10;;;;;;5048530;28;20077;-73
2021/09/08 04:13:58;;;;;;;43.85;27.63;;;15.40;58.30;;;;;;5045370;28;20040;-71
2021/09/08 04:16:23;;;;;;;18.25;8.40;;;15.80;57.50;;;;;;5048186;28;20107;-73
2021/09/08 04:18:49;;;;;;;15.38;8.15;;;16.10;56.60;;;;;;5043822;28;20029;-71
2021/09/08 04:21:15;;;;;;;15.82;7.75;;;16.40;56.00;;;;;;5057339;28;20488;-72
2021/09/08 04:23:40;;;;;;;16.52;8.68;;;16.80;55.20;;;;;;5069082;28;20482;-71
2021/09/08 04:26:06;;;;;;;16.67;7.95;;;17.00;54.60;;;;;;5060779;28;20022;-71
2021/09/08 04:28:32;;;;;;;19.00;10.10;;;17.40;54.00;;;;;;5033066;28;20029;-72
2021/09/08 04:30:58;;;;;;;21.77;9.07;;;17.70;53.10;;;;;;5045652;28;20119;-72
2021/09/08 04:33:23;;;;;;;19.95;9.60;;;18.00;52.60;;;;;;5044090;28;20031;-73
2021/09/08 04:35:52;;;;;;;19.05;9.00;;;18.30;52.10;;;;;;5059742;28;20103;-72
2021/09/08 04:38:18;;;;;;;20.15;9.32;;;18.70;51.50;;;;;;5050895;28;20056;-74
2021/09/08 04:40:45;;;;;;;20.83;9.35;;;19.00;50.60;;;;;;5053545;28;20090;-70
2021/09/08 04:43:10;;;;;;;17.75;9.50;;;19.30;50.10;;;;;;5053755;28;20021;-70
2021/09/08 04:45:36;;;;;;;20.13;9.25;;;19.60;49.40;;;;;;5048324;28;20074;-65
2021/09/08 04:48:02;;;;;;;30.90;14.32;;;19.90;48.70;;;;;;5037527;28;20029;-63
2021/09/08 04:50:27;;;;;;;32.35;12.80;;;20.00;48.00;;;;;;5035521;28;20029;-71
2021/09/08 04:52:53;;;;;;;33.58;13.75;;;20.00;47.80;;;;;;5049259;28;20033;-72
2021/09/08 04:55:19;;;;;;;28.20;12.43;;;20.10;47.70;;;;;;5049543;28;20100;-71
2021/09/08 04:57:44;;;;;;;24.98;12.75;;;20.20;47.50;;;;;;5032150;28;20037;-73
2021/09/08 05:00:11;;;;;;;22.17;11.45;;;20.50;47.20;;;;;;5033296;28;20025;-72
2021/09/08 05:02:37;;;;;;;24.02;11.73;;;20.70;46.80;;;;;;5033378;28;20037;-69
2021/09/08 05:05:03;;;;;;;21.98;10.70;;;20.90;46.60;;;;;;5051474;28;20114;-76
2021/09/08 05:07:29;;;;;;;18.45;9.82;;;21.00;46.30;;;;;;5047800;28;20033;-81
2021/09/08 05:09:54;;;;;;;25.10;9.32;;;21.30;46.10;;;;;;5038763;28;20048;-75
2021/09/08 05:12:20;;;;;;;16.70;8.85;;;21.40;45.70;;;;;;5053784;28;20371;-76
2021/09/08 05:14:46;;;;;;;24.13;11.05;;;21.50;45.40;;;;;;5050046;28;20029;-71
2021/09/08 05:17:11;;;;;;;19.67;9.15;;;21.50;45.30;;;;;;5035732;28;20065;-71
2021/09/08 05:19:37;;;;;;;18.35;7.70;;;21.50;45.30;;;;;;5066597;28;20025;-71
2021/09/08 05:22:03;;;;;;;18.10;9.10;;;21.50;45.30;;;;;;5039638;28;20067;-74
2021/09/08 05:24:29;;;;;;;24.15;9.98;;;21.50;45.10;;;;;;5032975;28;20413;-72
2021/09/08 05:26:54;;;;;;;27.65;11.95;;;21.40;45.10;;;;;;5032094;28;20069;-68
2021/09/08 05:29:20;;;;;;;36.35;16.25;;;21.40;45.20;;;;;;5040412;28;20498;-73
2021/09/08 05:31:46;;;;;;;48.80;20.33;;;21.40;45.00;;;;;;5051119;28;20029;-72
2021/09/08 05:34:11;;;;;;;26.73;11.75;;;21.40;45.00;;;;;;5053072;28;20049;-80
2021/09/08 05:36:37;;;;;;;32.85;14.98;;;21.40;45.10;;;;;;5051949;28;20368;-73
2021/09/08 05:39:03;;;;;;;24.20;9.98;;;21.50;45.30;;;;;;5052936;28;20025;-79
2021/09/08 05:41:30;;;;;;;20.88;7.88;;;21.60;45.30;;;;;;5051780;28;20422;-76
2021/09/08 05:43:56;;;;;;;15.18;7.32;;;22.00;45.00;;;;;;5051249;28;20017;-75
2021/09/08 05:46:21;;;;;;;16.98;7.55;;;22.50;44.50;;;;;;5052013;28;20079;-75
2021/09/08 05:48:47;;;;;;;15.40;6.57;;;22.80;44.00;;;;;;5046382;28;20103;-77
2021/09/08 05:51:13;;;;;;;11.63;6.00;;;23.30;43.60;;;;;;5053263;28;20072;-77
2021/09/08 05:53:39;;;;;;;12.75;5.82;;;23.70;43.00;;;;;;5050109;28;20025;-78
2021/09/08 05:56:04;;;;;;;16.27;7.50;;;24.10;42.00;;;;;;5046719;28;20056;-77
2021/09/08 05:58:30;;;;;;;15.68;6.30;;;24.50;41.60;;;;;;5051255;28;20037;-77
2021/09/08 06:00:56;;;;;;;13.75;6.20;;;24.80;40.70;;;;;;5051660;28;20467;-77
2021/09/08 06:03:21;;;;;;;15.18;6.80;;;24.70;40.30;;;;;;5052647;28;20060;-79
2021/09/08 06:05:47;;;;;;;13.57;6.43;;;24.80;40.20;;;;;;5050858;28;20057;-81
2021/09/08 06:08:13;;;;;;;11.45;6.05;;;24.90;39.80;;;;;;5056316;28;20024;-75
2021/09/08 06:10:39;;;;;;;14.32;6.35;;;24.80;39.60;;;;;;5055217;28;20364;-78
2021/09/08 06:13:04;;;;;;;12.60;6.65;;;24.90;40.00;;;;;;5039689;28;20030;-75
2021/09/08 06:15:31;;;;;;;12.27;6.57;;;25.30;39.90;;;;;;5034092;28;20026;-78
2021/09/08 06:17:57;;;;;;;13.02;5.75;;;25.80;39.50;;;;;;5037847;28;20052;-77
2021/09/08 06:20:23;;;;;;;14.43;4.90;;;26.10;38.80;;;;;;5052037;28;20387;-78
2021/09/08 06:22:48;;;;;;;9.98;4.80;;;26.30;38.50;;;;;;5061118;28;20025;-83
2021/09/08 06:25:14;;;;;;;12.43;5.70;;;26.50;38.30;;;;;;5054686;28;20032;-85
2021/09/08 06:27:40;;;;;;;21.40;8.50;;;26.80;38.00;;;;;;5035999;28;20112;-79
2021/09/08 06:30:08;;;;;;;40.60;16.60;;;27.00;37.60;;;;;;5037163;28;20458;-76
2021/09/08 06:32:34;;;;;;;125.70;46.20;;;27.20;37.10;;;;;;5036849;28;20384;-75
2021/09/08 06:35:00;;;;;;;87.28;35.83;;;27.20;36.20;;;;;;5052021;28;20025;-75
2021/09/08 06:37:26;;;;;;;47.88;23.58;;;26.90;36.00;;;;;;5051322;28;20037;-75
2021/09/08 06:39:52;;;;;;;52.25;25.88;;;26.50;35.70;;;;;;5051565;28;20485;-76
2021/09/08 06:42:17;;;;;;;45.03;20.55;;;26.30;36.10;;;;;;5051853;28;20033;-79
2021/09/08 06:44:43;;;;;;;28.98;14.10;;;26.10;36.30;;;;;;5053332;28;20032;-77
2021/09/08 06:47:09;;;;;;;44.08;16.75;;;26.20;36.40;;;;;;5054636;28;20037;-75
2021/09/08 06:49:35;;;;;;;36.60;14.50;;;26.20;36.20;;;;;;5042215;28;20126;-76
2021/09/08 06:52:01;;;;;;;69.18;20.17;;;26.30;36.20;;;;;;5034902;28;20075;-76
2021/09/08 06:54:27;;;;;;;30.13;11.48;;;26.40;36.20;;;;;;5034969;28;20041;-76
2021/09/08 06:56:53;;;;;;;17.77;5.93;;;26.60;36.80;;;;;;5034777;28;20021;-76
2021/09/08 06:59:18;;;;;;;14.88;5.43;;;27.10;36.30;;;;;;5034828;28;20026;-79
2021/09/08 07:01:44;;;;;;;9.18;4.35;;;27.50;36.40;;;;;;5032275;28;20105;-76
2021/09/08 07:04:10;;;;;;;11.98;5.30;;;27.90;35.50;;;;;;5033600;28;20459;-77
2021/09/08 07:06:36;;;;;;;9.40;4.82;;;28.10;35.20;;;;;;5033110;28;20079;-75
2021/09/08 07:09:01;;;;;;;11.43;4.20;;;28.40;34.90;;;;;;5033579;28;20412;-78
2021/09/08 07:11:27;;;;;;;10.63;3.13;;;28.60;34.50;;;;;;5033326;28;20091;-75
2021/09/08 07:13:53;;;;;;;8.30;3.38;;;29.00;34.40;;;;;;5033489;28;20111;-73
2021/09/08 07:16:18;;;;;;;9.82;3.90;;;29.50;34.00;;;;;;5034744;28;20546;-73
2021/09/08 07:18:44;;;;;;;7.78;4.10;;;29.90;34.00;;;;;;5033542;28;20175;-71
2021/09/08 07:21:10;;;;;;;5.88;3.17;;;30.40;33.60;;;;;;5033665;28;20387;-74
2021/09/08 07:23:35;;;;;;;7.03;3.63;;;30.80;33.20;;;;;;5033966;28;20030;-73
2021/09/08 07:26:01;;;;;;;11.00;3.65;;;31.20;32.80;;;;;;5032600;28;20087;-77
2021/09/08 07:28:27;;;;;;;9.77;4.05;;;31.40;32.70;;;;;;5035692;28;20041;-73
2021/09/08 07:30:53;;;;;;;9.48;3.60;;;31.70;32.50;;;;;;5033951;28;20033;-74
2021/09/08 07:33:23;;;;;;;12.00;3.47;;;31.80;32.20;;;;;;5033526;28;20037;-73
2021/09/08 07:35:49;;;;;;;8.77;3.63;;;31.80;32.30;;;;;;5034908;28;20407;-74
2021/09/08 07:38:16;;;;;;;10.75;3.70;;;31.90;31.60;;;;;;5035060;28;20116;-74
2021/09/08 07:40:42;;;;;;;7.05;3.65;;;31.90;31.30;;;;;;5035195;28;20085;-75
2021/09/08 07:43:08;;;;;;;6.18;3.30;;;31.80;31.20;;;;;;5034869;28;20037;-75
2021/09/08 07:45:34;;;;;;;6.88;3.35;;;31.90;31.60;;;;;;5034875;28;20083;-75
2021/09/08 07:48:00;;;;;;;8.20;3.55;;;32.00;31.60;;;;;;5033688;28;20400;-75
2021/09/08 07:50:26;;;;;;;8.40;3.80;;;32.10;31.60;;;;;;5034184;28;20029;-74
2021/09/08 07:52:52;;;;;;;8.40;3.40;;;32.50;31.70;;;;;;5033830;28;20030;-75
2021/09/08 07:55:17;;;;;;;5.43;2.97;;;32.50;31.20;;;;;;5033188;28;20120;-74
2021/09/08 07:57:43;;;;;;;18.30;6.18;;;32.60;30.80;;;;;;5033649;28;20549;-73
2021/09/08 08:00:09;;;;;;;12.75;3.85;;;32.60;30.30;;;;;;5032939;28;20021;-74
2021/09/08 08:02:46;;;;;;;26.77;9.02;;;32.20;30.50;;;;;;5034702;28;20100;-74
2021/09/08 08:05:14;;;;;;;18.85;5.22;;;32.20;30.80;;;;;;5034776;28;20509;-73
2021/09/08 08:07:41;;;;;;;16.58;4.05;;;32.00;30.40;;;;;;5033434;28;20045;-74
2021/09/08 08:10:07;;;;;;;8.25;3.10;;;31.60;30.60;;;;;;5033380;28;20025;-74
2021/09/08 08:12:33;;;;;;;6.35;2.80;;;31.50;30.90;;;;;;5034491;28;20383;-74
2021/09/08 08:14:58;;;;;;;3.90;2.25;;;31.80;31.10;;;;;;5033252;28;20025;-74
2021/09/08 08:17:24;;;;;;;6.25;2.45;;;32.00;30.60;;;;;;5034107;28;20037;-73
2021/09/08 08:19:50;;;;;;;11.75;3.08;;;32.10;30.00;;;;;;5033201;28;20168;-74
2021/09/08 08:22:16;;;;;;;20.25;6.28;;;31.90;30.00;;;;;;5034256;28;20464;-74
2021/09/08 08:24:42;;;;;;;18.45;5.75;;;31.70;30.20;;;;;;5033143;28;20029;-75
2021/09/08 08:27:12;;;;;;;8.38;3.13;;;31.80;30.80;;;;;;5032970;28;20043;-74
2021/09/08 08:29:38;;;;;;;16.75;3.53;;;32.30;30.30;;;;;;5033201;28;20021;-73
2021/09/08 08:32:04;;;;;;;12.80;3.33;;;32.70;30.00;;;;;;5033069;28;20021;-74
2021/09/08 08:34:30;;;;;;;7.82;2.50;;;32.80;29.30;;;;;;5034106;28;20029;-74
2021/09/08 08:36:56;;;;;;;11.13;4.60;;;32.30;29.50;;;;;;5033902;28;20036;-73
2021/09/08 08:39:22;;;;;;;10.32;3.70;;;32.50;29.80;;;;;;5032562;28;20037;-77
2021/09/08 08:41:48;;;;;;;8.70;2.97;;;32.50;29.70;;;;;;5032844;28;20055;-75
2021/09/08 08:44:18;;;;;;;7.13;2.42;;;32.50;29.50;;;;;;5032913;28;20025;-74
2021/09/08 08:46:44;;;;;;;6.25;2.30;;;32.30;28.90;;;;;;5033824;28;20027;-74
2021/09/08 08:49:10;;;;;;;14.40;3.80;;;31.80;29.40;;;;;;5033765;28;20036;-74
2021/09/08 08:51:35;;;;;;;6.78;2.70;;;31.60;29.50;;;;;;5032430;28;20078;-75
2021/09/08 08:54:01;;;;;;;6.20;3.00;;;31.70;29.40;;;;;;5034064;28;20086;-78
2021/09/08 08:56:27;;;;;;;26.08;12.48;;;31.50;29.60;;;;;;5032532;28;20053;-73
2021/09/08 08:58:54;;;;;;;25.42;12.25;;;31.40;29.40;;;;;;5032845;28;20369;-73
2021/09/08 09:01:24;;;;;;;16.75;7.32;;;31.30;29.50;;;;;;5032282;28;20503;-73
2021/09/08 09:04:02;;;;;;;6.50;3.97;;;31.30;30.00;;;;;;5033790;28;20033;-73
2021/09/08 09:06:29;;;;;;;9.48;3.55;;;31.60;30.00;;;;;;5032395;28;20132;-74
2021/09/08 09:09:07;;;;;;;7.70;3.00;;;32.10;30.20;;;;;;5033681;28;20132;-73
2021/09/08 09:11:34;;;;;;;6.13;2.90;;;32.70;30.30;;;;;;5032014;28;20036;-74
2021/09/08 09:14:08;;;;;;;4.93;2.72;;;33.10;30.00;;;;;;5032275;28;20030;-74
2021/09/08 09:16:35;;;;;;;8.25;2.47;;;33.40;29.40;;;;;;5032214;28;20032;-74
2021/09/08 09:19:02;;;;;;;8.20;2.60;;;33.50;29.20;;;;;;5032152;28;20098;-77
2021/09/08 09:21:28;;;;;;;8.27;3.03;;;33.40;29.20;;;;;;5033474;28;20037;-73
2021/09/08 09:23:59;;;;;;;8.75;3.22;;;33.60;29.30;;;;;;5033188;28;20033;-73
2021/09/08 09:26:34;;;;;;;22.63;4.88;;;33.50;28.80;;;;;;5032257;28;20476;-74
2021/09/08 09:29:18;;;;;;;17.52;3.60;;;33.30;28.90;;;;;;5032200;28;20041;-74
2021/09/08 09:31:54;;;;;;;14.77;3.15;;;32.90;28.90;;;;;;5032112;28;20124;-72
2021/09/08 09:34:21;;;;;;;4.50;1.98;;;32.40;29.10;;;;;;5032224;28;20029;-74
2021/09/08 09:36:51;;;;;;;6.55;2.63;;;32.00;29.30;;;;;;5031308;28;20025;-73
2021/09/08 09:39:17;;;;;;;12.93;3.30;;;31.70;29.40;;;;;;5032136;28;20503;-73
2021/09/08 09:41:42;;;;;;;12.20;4.40;;;31.70;29.80;;;;;;5032129;28;20030;-74
2021/09/08 09:44:10;;;;;;;12.82;5.35;;;32.00;29.60;;;;;;5031918;28;20029;-73
2021/09/08 09:46:40;;;;;;;14.63;7.88;;;32.10;29.50;;;;;;5032634;28;20487;-74
2021/09/08 09:49:06;;;;;;;11.45;4.72;;;32.10;29.10;;;;;;5032771;28;20494;-73
2021/09/08 09:51:32;;;;;;;10.18;2.85;;;32.10;29.70;;;;;;5036433;28;20445;-74
2021/09/08 09:53:58;;;;;;;10.50;3.28;;;32.40;29.70;;;;;;5036242;28;20048;-74
2021/09/08 09:56:23;;;;;;;5.38;2.20;;;32.40;29.10;;;;;;5037026;28;20041;-74
2021/09/08 09:58:49;;;;;;;5.30;2.33;;;31.90;29.20;;;;;;5035908;28;20033;-74
2021/09/08 10:01:16;;;;;;;4.35;2.40;;;31.70;29.40;;;;;;5036583;28;20053;-74
2021/09/08 10:03:44;;;;;;;15.13;5.22;;;31.60;29.40;;;;;;5049111;28;20123;-74
2021/09/08 10:06:10;;;;;;;16.75;5.93;;;31.60;29.40;;;;;;5056707;28;20049;-74
2021/09/08 10:08:42;;;;;;;7.93;3.95;;;31.50;29.50;;;;;;5055775;28;20029;-73
2021/09/08 10:11:12;;;;;;;11.20;3.95;;;31.30;29.60;;;;;;5055803;28;20036;-73
2021/09/08 10:13:45;;;;;;;12.48;4.50;;;31.10;29.70;;;;;;5055707;28;20069;-73
2021/09/08 10:16:12;;;;;;;11.07;3.95;;;31.20;29.20;;;;;;5055937;28;20056;-74
2021/09/08 10:18:41;;;;;;;10.15;3.70;;;31.10;29.80;;;;;;5055700;28;20526;-73
2021/09/08 10:21:10;;;;;;;9.20;2.80;;;31.30;29.80;;;;;;5055579;28;20025;-73
2021/09/08 10:23:44;;;;;;;8.88;3.47;;;31.60;30.00;;;;;;5056795;28;20024;-74
2021/09/08 10:26:16;;;;;;;11.43;5.43;;;32.10;29.80;;;;;;5055620;28;20462;-74
2021/09/08 10:28:43;;;;;;;28.67;9.98;;;32.10;29.70;;;;;;5055471;28;20456;-73
2021/09/08 10:31:11;;;;;;;15.95;5.53;;;32.30;29.70;;;;;;5052825;28;20032;-73
2021/09/08 10:33:43;;;;;;;5.95;2.70;;;32.10;29.50;;;;;;5036537;28;20460;-72
2021/09/08 10:36:13;;;;;;;8.85;3.05;;;31.60;29.30;;;;;;5035368;28;20033;-74
2021/09/08 10:38:40;;;;;;;8.05;3.50;;;31.20;29.70;;;;;;5036421;28;20040;-73
2021/09/08 10:41:08;;;;;;;7.53;3.20;;;31.00;30.00;;;;;;5035836;28;20475;-73
2021/09/08 10:43:38;;;;;;;6.00;2.85;;;31.20;30.80;;;;;;5035178;28;20047;-73
2021/09/08 10:46:05;;;;;;;6.60;2.95;;;31.30;30.60;;;;;;5036456;28;20034;-71
2021/09/08 10:48:39;;;;;;;6.93;2.90;;;31.70;30.70;;;;;;5035158;28;20030;-73
2021/09/08 10:51:07;;;;;;;8.95;2.72;;;32.30;30.30;;;;;;5035769;28;20056;-73
2021/09/08 10:53:34;;;;;;;16.80;4.78;;;32.70;30.00;;;;;;5036505;28;20049;-73
2021/09/08 10:56:02;;;;;;;12.63;6.32;;;32.90;29.70;;;;;;5036192;28;20021;-73
2021/09/08 10:58:56;;;;;;;12.52;5.00;;;32.70;29.60;;;;;;5034620;28;20208;-73
2021/09/08 11:01:23;;;;;;;11.02;4.50;;;32.20;29.60;;;;;;5033896;28;20431;-72
2021/09/08 11:03:50;;;;;;;9.40;3.97;;;32.10;29.90;;;;;;5036673;28;20030;-73
2021/09/08 11:06:16;;;;;;;13.63;5.63;;;32.30;30.00;;;;;;5034889;28;20057;-72
2021/09/08 11:08:44;;;;;;;10.90;4.70;;;32.40;30.00;;;;;;5034815;28;20025;-72
2021/09/08 11:11:19;;;;;;;5.93;2.63;;;32.40;29.90;;;;;;5034595;28;20022;-73
2021/09/08 11:13:55;;;;;;;6.30;2.63;;;32.20;29.70;;;;;;5034440;28;20046;-73
2021/09/08 11:16:26;;;;;;;5.35;2.60;;;32.40;29.50;;;;;;5037946;28;20461;-73
2021/09/08 11:18:53;;;;;;;5.68;2.65;;;32.50;29.50;;;;;;5055585;28;20129;-73
2021/09/08 11:21:23;;;;;;;4.78;2.47;;;32.30;29.80;;;;;;5055099;28;20098;-72
2021/09/08 11:24:01;;;;;;;5.82;2.53;;;32.60;29.70;;;;;;5054508;28;20048;-73
2021/09/08 11:26:29;;;;;;;5.57;2.70;;;32.90;29.80;;;;;;5055597;28;20029;-72
2021/09/08 11:29:10;;;;;;;9.57;2.78;;;32.80;29.70;;;;;;5055099;28;20036;-73
2021/09/08 11:31:36;;;;;;;7.35;2.60;;;32.70;29.80;;;;;;5054541;28;20082;-73
2021/09/08 11:34:02;;;;;;;4.65;2.65;;;32.50;30.30;;;;;;5054324;28;20420;-72
2021/09/08 11:36:32;;;;;;;7.05;2.63;;;32.60;30.00;;;;;;5055433;28;20032;-73
2021/09/08 11:38:59;;;;;;;5.32;2.50;;;32.80;29.80;;;;;;5053886;28;20045;-73
2021/09/08 11:41:27;;;;;;;5.45;2.63;;;33.10;29.60;;;;;;5054197;28;20021;-71
2021/09/08 11:43:55;;;;;;;4.30;2.35;;;33.30;29.20;;;;;;5054118;28;20032;-72
2021/09/08 11:46:31;;;;;;;8.18;2.55;;;33.20;28.90;;;;;;5051068;28;20029;-77
2021/09/08 11:49:06;;;;;;;7.07;2.88;;;33.10;29.00;;;;;;5034223;28;20379;-74
2021/09/08 11:51:36;;;;;;;6.38;3.00;;;32.80;30.00;;;;;;5034099;28;20026;-73
2021/09/08 11:54:04;;;;;;;9.18;3.55;;;31.90;31.60;;;;;;5034052;28;20021;-72
2021/09/08 11:56:31;;;;;;;7.10;3.15;;;31.00;32.90;;;;;;5035076;28;20456;-72
2021/09/08 11:58:58;;;;;;;7.25;2.95;;;30.00;33.80;;;;;;5033530;28;20391;-72
2021/09/08 12:01:25;;;;;;;6.93;3.10;;;29.00;34.40;;;;;;5033354;28;20025;-71
2021/09/08 12:03:52;;;;;;;5.78;2.95;;;28.20;34.50;;;;;;5033189;28;20037;-72
2021/09/08 12:06:24;;;;;;;8.65;3.25;;;27.40;35.10;;;;;;5033623;28;20061;-72
2021/09/08 12:09:10;;;;;;;7.97;3.10;;;26.80;35.90;;;;;;5033878;28;20082;-72
2021/09/08 12:11:47;;;;;;;6.55;2.90;;;26.40;36.90;;;;;;5033728;28;20022;-72
2021/09/08 12:14:40;;;;;;;5.78;3.10;;;26.00;36.80;;;;;;5034809;28;20036;-72
2021/09/08 12:17:12;;;;;;;5.70;3.13;;;25.70;38.00;;;;;;5033901;28;20076;-71
2021/09/08 12:19:42;;;;;;;5.68;3.13;;;25.50;38.40;;;;;;5033485;28;20037;-71
2021/09/08 12:22:19;;;;;;;7.03;3.45;;;25.30;38.30;;;;;;5034826;28;20475;-72
2021/09/08 12:24:50;;;;;;;5.60;3.40;;;25.00;38.70;;;;;;5034599;28;20021;-71
2021/09/08 12:27:39;;;;;;;9.35;3.80;;;24.70;39.00;;;;;;5033435;28;20033;-71
2021/09/08 12:30:15;;;;;;;7.97;3.80;;;24.40;39.50;;;;;;5034946;28;20033;-72
2021/09/08 12:32:43;;;;;;;6.18;3.60;;;24.30;39.90;;;;;;5033493;28;20055;-74
2021/09/08 12:35:09;;;;;;;10.45;4.15;;;24.30;39.80;;;;;;5041364;28;20108;-71